Time;durP1;ratioP1;P1;durP2;ratioP2;P2;SDS_P1;SDS_P2;PMS_P1;PMS_P2;Temp;Humidity;BMP_temperature;BMP_pressure;BME280_temperature;BME280_humidity;BME280_pressure;Samples;Min_cycle;Max_cycle;Signal;HPM_P1;HPM_P2
2020/07/20 08:32:45;;;;;;;0;0;;;;;;;0;0;0;;;;
2020/07/20 08:34:28;;;;;;;0;0;;;;;;;0;0;0;;;;
2020/07/20 08:35:54;;;;;;;0;0;;;;;;;0;0;0;;;;
2020/07/20 08:37:23;;;;;;;0;0;;;;;;;0;0;0;;;;
2020/07/20 08:40:35;;;;;;;0;0;;;;;;;0;0;0;;;;
2020/07/20 08:49:58;;;;;;;0;0;;;;;;;0;0;0;;;;
2020/07/20 08:59:27;;;;;;;0;0;;;;;;;0;0;0;;;;
2020/07/20 09:05:08;;;;;;;0;0;;;;;;;0;0;0;;;;
2020/07/20 09:06:27;;;;;;;0;0;;;;;;;0;0;0;;;;
2020/07/20 09:07:36;;;;;;;0;0;;;;;;;0;0;0;;;;
2020/07/20 09:09:10;;;;;;;0;0;;;;;;;0;0;0;;;;
2020/07/20 09:14:34;;;;;;;0;0;;;;;;;0;0;0;;;;
2020/07/20 09:15:55;;;;;;;0;0;;;;;;;0;0;0;;;;
2020/07/20 09:17:17;;;;;;;0;0;;;;;;;0;0;0;;;;
2020/07/20 09:18:39;;;;;;;0;0;;;;;;;0;0;0;;;;
2020/07/20 09:20:28;;;;;;;0;0;;;;;;;0;0;0;;;;
2020/07/20 09:22:21;;;;;;;0;0;;;;;;;0;0;0;;;;
2020/07/20 09:24:23;;;;;;;0;0;;;;;;;0;0;0;;;;
2020/07/20 09:29:39;;;;;;;0;0;;;;;;;0;0;0;;;;
2020/07/20 09:30:55;;;;;;;0;0;;;;;;;0;0;0;;;;
2020/07/20 09:32:04;;;;;;;0;0;;;;;;;0;0;0;;;;
2020/07/20 09:33:16;;;;;;;0;0;;;;;;;0;0;0;;;;
2020/07/20 09:34:31;;;;;;;0;0;;;;;;;0;0;0;;;;
2020/07/20 09:35:40;;;;;;;0;0;;;;;;;0;0;0;;;;
2020/07/20 09:36:46;;;;;;;0;0;;;;;;;0;0;0;;;;
2020/07/20 09:38:01;;;;;;;0;0;;;;;;;0;0;0;;;;
2020/07/20 09:39:10;;;;;;;0;0;;;;;;;0;0;0;;;;
2020/07/20 09:40:21;;;;;;;0;0;;;;;;;0;0;0;;;;
2020/07/20 09:41:25;;;;;;;0;0;;;;;;;0;0;0;;;;
2020/07/20 09:42:32;;;;;;;0;0;;;;;;;0;0;0;;;;
2020/07/20 09:43:55;;;;;;;0;0;;;;;;;0;0;0;;;;
2020/07/20 09:46:16;;;;;;;0;0;;;;;;;0;0;0;;;;
2020/07/20 09:47:26;;;;;;;0;0;;;;;;;0;0;0;;;;
2020/07/20 09:48:31;;;;;;;0;0;;;;;;;0;0;0;;;;
2020/07/20 09:49:41;;;;;;;0;0;;;;;;;0;0;0;;;;
2020/07/20 09:50:54;;;;;;;0;0;;;;;;;0;0;0;;;;
2020/07/20 09:52:00;;;;;;;0;0;;;;;;;0;0;0;;;;
2020/07/20 09:53:22;;;;;;;0;0;;;;;;;0;0;0;;;;
2020/07/20 09:58:48;;;;;;;0;0;;;;;;;0;0;0;;;;
2020/07/20 09:59:50;;;;;;;0;0;;;;;;;0;0;0;;;;
2020/07/20 10:00:51;;;;;;;0;0;;;;;;;0;0;0;;;;
2020/07/20 10:02:08;;;;;;;0;0;;;;;;;0;0;0;;;;
2020/07/20 10:03:38;;;;;;;4.65;3.8;;;;;;;40.81;36.63672;95340.31;;;;
2020/07/20 10:04:45;;;;;;;4.65;3.8;;;;;;;40.81;36.63672;95340.31;;;;
2020/07/20 10:06:34;;;;;;;4.65;3.8;;;;;;;40.81;36.63672;95340.31;;;;
2020/07/20 10:07:53;;;;;;;4.65;3.8;;;;;;;40.81;36.63672;95340.31;;;;
2020/07/20 10:09:22;;;;;;;4.65;3.8;;;;;;;40.81;36.63672;95340.31;;;;
2020/07/20 10:10:49;;;;;;;4.65;3.8;;;;;;;40.81;36.63672;95340.31;;;;
2020/07/20 10:13:00;;;;;;;4.65;3.8;;;;;;;40.81;36.63672;95340.31;;;;
2020/07/20 10:14:14;;;;;;;4.6;4.299999;;;;;;;40.4;34.4873;95346.78;;;;
2020/07/20 10:15:40;;;;;;;4.6;4.299999;;;;;;;40.4;34.4873;95346.78;;;;
2020/07/20 10:16:55;;;;;;;4.6;4.299999;;;;;;;40.4;34.4873;95346.78;;;;
2020/07/20 10:25:41;;;;;;;4.599999;4.3;;;;;;;39.83;33.34668;95353.75;;;;
2020/07/20 10:28:36;;;;;;;4.599999;4.3;;;;;;;39.83;33.34668;95353.75;;;;
2020/07/20 10:30:33;;;;;;;4.599999;4.3;;;;;;;39.83;33.34668;95353.75;;;;
2020/07/20 10:37:45;;;;;;;4.3;4;;;;;;;39.93;32.17383;95348.6;;;;
2020/07/20 10:47:08;;;;;;;4.45;4.05;;;;;;;39.31;32.22363;95351.23;;;;
2020/07/20 10:56:32;;;;;;;4.099999;3.8;;;;;;;38.45;31.85254;95339.98;;;;
2020/07/20 11:00:25;;;;;;;4.099999;3.8;;;;;;;38.45;31.85254;95339.98;;;;
2020/07/20 11:09:50;;;;;;;4.149999;3.85;;;;;;;37.52;32.05273;95340.98;;;;
2020/07/20 11:19:08;;;;;;;5.500001;5.000001;;;;;;;36.58;32.43555;95331.76;;;;
2020/07/20 11:28:31;;;;;;;4.099999;3.8;;;;;;;36.77;32.77051;95328.94;;;;
2020/07/20 11:34:35;;;;;;;4.099999;3.8;;;;;;;36.77;32.77051;95328.94;;;;
2020/07/20 11:37:58;;;;;;;4.099999;3.8;;;;;;;36.77;32.77051;95328.94;;;;
2020/07/20 11:40:15;;;;;;;4;3.7;;;;;;;36.99;32.45215;95330.8;;;;
2020/07/20 11:49:36;;;;;;;4.45;4.05;;;;;;;36.62;32.50781;95327.35;;;;
2020/07/20 11:59:00;;;;;;;4.45;4.05;;;;;;;36.62;32.50781;95327.35;;;;
2020/07/20 12:03:36;;;;;;;4.05;3.65;;;;;;;36.17;33.01465;95316.82;;;;
2020/07/20 12:07:16;;;;;;;4.05;3.65;;;;;;;36.17;33.01465;95316.82;;;;
2020/07/20 12:14:21;;;;;;;3.7;3.5;;;;;;;35.97;32.91992;95314.54;;;;
2020/07/20 12:16:39;;;;;;;3.7;3.5;;;;;;;35.97;32.91992;95314.54;;;;
2020/07/20 12:19:08;;;;;;;3.7;3.5;;;;;;;35.97;32.91992;95314.54;;;;
2020/07/20 12:25:27;;;;;;;3.5;3.3;;;;;;;36.08;32.87109;95310.17;;;;
2020/07/20 12:34:50;;;;;;;3.7;3.400001;;;;;;;36.16;32.73828;95304.33;;;;
2020/07/20 12:44:13;;;;;;;3.75;3.45;;;;;;;36.12;32.47168;95306.95;;;;
2020/07/20 12:53:06;;;;;;;3.3;3.1;;;;;;;36.25;32.56152;95301.93;;;;
2020/07/20 13:02:21;;;;;;;3.3;3.1;;;;;;;36.25;32.56152;95301.93;;;;
2020/07/20 13:04:10;;;;;;;5.450001;3.4;;;;;;;36.45;32.32324;95289.14;;;;
2020/07/20 13:13:32;;;;;;;5.450001;3.4;;;;;;;36.45;32.32324;95289.14;;;;
2020/07/20 13:22:55;;;;;;;3.55;3.2;;;;;;;37.25;31.2627;95301.58;;;;
2020/07/20 13:32:18;;;;;;;3.7;3.3;;;;;;;37.81;30.9668;95305.87;;;;
2020/07/20 13:41:42;;;;;;;4.6;4.199999;;;;;;;38.88;29.83789;95300.55;;;;
2020/07/20 13:51:05;;;;;;;3.6;3.2;;;;;;;40.31;28.09863;95307.65;;;;
2020/07/20 14:00:28;;;;;;;3.1;2.9;;;;;;;41.47;25.72754;95306.76;;;;
2020/07/20 14:09:51;;;;;;;3;2.8;;;;;;;42.1;24.53906;95298.03;;;;
2020/07/20 14:19:14;;;;;;;3.2;2.9;;;;;;;42.3;23.58203;95294.54;;;;
2020/07/20 14:28:38;;;;;;;3.1;2.9;;;;;;;42.36;23.375;95287.72;;;;
2020/07/20 14:38:01;;;;;;;3.1;2.9;;;;;;;42.36;23.375;95287.72;;;;
2020/07/20 14:47:24;;;;;;;3;2.8;;;;;;;42.33;23.31641;95283.71;;;;
2020/07/20 14:56:47;;;;;;;3.15;2.900001;;;;;;;41.86;22.84961;95286.58;;;;
2020/07/20 15:06:10;;;;;;;3.1;2.8;;;;;;;41.44;22.54883;95279.91;;;;
2020/07/20 15:15:34;;;;;;;3.1;2.9;;;;;;;40.99;22.79492;95269.58;;;;
2020/07/20 15:24:57;;;;;;;2.85;2.65;;;;;;;40.3;22.72656;95285.82;;;;
2020/07/20 15:34:20;;;;;;;3.7;2.85;;;;;;;39.51;22.82715;95281.59;;;;
2020/07/20 15:39:32;;;;;;;3.7;2.85;;;;;;;39.51;22.82715;95281.59;;;;
2020/07/20 15:40:33;;;;;;;3.7;2.85;;;;;;;39.51;22.82715;95281.59;;;;
2020/07/20 15:41:34;;;;;;;3.7;2.85;;;;;;;39.51;22.82715;95281.59;;;;
2020/07/20 15:42:35;;;;;;;3.3;3;;;;;;;39.05;23.10547;95275.58;;;;
2020/07/20 15:43:35;;;;;;;3.3;3;;;;;;;39.05;23.10547;95275.58;;;;
2020/07/20 15:44:36;;;;;;;3.3;3;;;;;;;39.05;23.10547;95275.58;;;;
2020/07/20 15:45:36;;;;;;;3.3;3;;;;;;;39.05;23.10547;95275.58;;;;
2020/07/20 15:46:37;;;;;;;3.3;3;;;;;;;39.05;23.10547;95275.58;;;;
2020/07/20 15:47:42;;;;;;;3.3;3;;;;;;;39.05;23.10547;95275.58;;;;
2020/07/20 15:48:43;;;;;;;3.3;3;;;;;;;39.05;23.10547;95275.58;;;;
2020/07/20 15:49:43;;;;;;;3.3;3;;;;;;;39.05;23.10547;95275.58;;;;
2020/07/20 15:50:44;;;;;;;3.3;3;;;;;;;39.05;23.10547;95275.58;;;;
2020/07/20 15:51:44;;;;;;;3.3;3;;;;;;;39.05;23.10547;95275.58;;;;
2020/07/20 15:52:45;;;;;;;3.3;3;;;;;;;39.05;23.10547;95275.58;;;;
2020/07/20 15:53:45;;;;;;;4.05;2.85;;;;;;;38.27;23.55176;95264.75;;;;
2020/07/20 15:54:46;;;;;;;4.05;2.85;;;;;;;38.27;23.55176;95264.75;;;;
2020/07/20 15:55:47;;;;;;;4.05;2.85;;;;;;;38.27;23.55176;95264.75;;;;
2020/07/20 15:56:47;;;;;;;4.05;2.85;;;;;;;38.27;23.55176;95264.75;;;;
2020/07/20 15:57:48;;;;;;;4.05;2.85;;;;;;;38.27;23.55176;95264.75;;;;
2020/07/20 15:58:48;;;;;;;4.05;2.85;;;;;;;38.27;23.55176;95264.75;;;;
2020/07/20 15:59:49;;;;;;;4.05;2.85;;;;;;;38.27;23.55176;95264.75;;;;
2020/07/20 16:00:49;;;;;;;4.05;2.85;;;;;;;38.27;23.55176;95264.75;;;;
2020/07/20 16:01:50;;;;;;;4.05;2.85;;;;;;;38.27;23.55176;95264.75;;;;
2020/07/20 16:02:50;;;;;;;4.05;2.85;;;;;;;38.27;23.55176;95264.75;;;;
2020/07/20 16:03:51;;;;;;;4.05;2.85;;;;;;;38.27;23.55176;95264.75;;;;
2020/07/20 16:04:51;;;;;;;4.05;2.85;;;;;;;38.27;23.55176;95264.75;;;;
2020/07/20 16:05:52;;;;;;;4.05;2.85;;;;;;;38.27;23.55176;95264.75;;;;
2020/07/20 16:06:53;;;;;;;4.05;2.85;;;;;;;38.27;23.55176;95264.75;;;;
2020/07/20 16:07:53;;;;;;;4.05;2.85;;;;;;;38.27;23.55176;95264.75;;;;
2020/07/20 16:08:54;;;;;;;4.05;2.85;;;;;;;38.27;23.55176;95264.75;;;;
2020/07/20 16:09:54;;;;;;;4.05;2.85;;;;;;;38.27;23.55176;95264.75;;;;
2020/07/20 16:10:55;;;;;;;4.05;2.85;;;;;;;38.27;23.55176;95264.75;;;;
2020/07/20 16:11:55;;;;;;;4.05;2.85;;;;;;;38.27;23.55176;95264.75;;;;
2020/07/20 16:12:56;;;;;;;4.05;2.85;;;;;;;38.27;23.55176;95264.75;;;;
2020/07/20 16:13:56;;;;;;;4.05;2.85;;;;;;;38.27;23.55176;95264.75;;;;
2020/07/20 16:14:57;;;;;;;3;2.7;;;;;;;36.81;24.36426;95254.37;;;;
2020/07/20 16:15:57;;;;;;;3;2.7;;;;;;;36.81;24.36426;95254.37;;;;
2020/07/20 16:16:58;;;;;;;3;2.7;;;;;;;36.81;24.36426;95254.37;;;;
2020/07/20 16:17:59;;;;;;;3;2.7;;;;;;;36.81;24.36426;95254.37;;;;
2020/07/20 16:18:59;;;;;;;3;2.7;;;;;;;36.81;24.36426;95254.37;;;;
2020/07/20 16:20:00;;;;;;;3;2.7;;;;;;;36.81;24.36426;95254.37;;;;
2020/07/20 16:21:00;;;;;;;3;2.7;;;;;;;36.81;24.36426;95254.37;;;;
2020/07/20 16:22:01;;;;;;;3;2.7;;;;;;;36.81;24.36426;95254.37;;;;
2020/07/20 16:23:01;;;;;;;3;2.7;;;;;;;36.81;24.36426;95254.37;;;;
2020/07/20 16:24:02;;;;;;;3;2.7;;;;;;;36.81;24.36426;95254.37;;;;
2020/07/20 16:25:08;;;;;;;3.15;2.7;;;;;;;35.73;25.08789;95260.05;;;;
2020/07/20 16:26:09;;;;;;;3.15;2.7;;;;;;;35.73;25.08789;95260.05;;;;
2020/07/20 16:27:10;;;;;;;3.15;2.7;;;;;;;35.73;25.08789;95260.05;;;;
2020/07/20 16:28:10;;;;;;;3.15;2.7;;;;;;;35.73;25.08789;95260.05;;;;
2020/07/20 16:29:11;;;;;;;3.15;2.7;;;;;;;35.73;25.08789;95260.05;;;;
2020/07/20 16:30:12;;;;;;;3.15;2.7;;;;;;;35.73;25.08789;95260.05;;;;
2020/07/20 16:31:13;;;;;;;3.15;2.7;;;;;;;35.73;25.08789;95260.05;;;;
2020/07/20 16:32:13;;;;;;;3.15;2.7;;;;;;;35.73;25.08789;95260.05;;;;
2020/07/20 16:33:14;;;;;;;3.15;2.7;;;;;;;35.73;25.08789;95260.05;;;;
2020/07/20 16:34:14;;;;;;;3.15;2.7;;;;;;;35.73;25.08789;95260.05;;;;
2020/07/20 16:35:15;;;;;;;3.15;2.7;;;;;;;35.73;25.08789;95260.05;;;;
2020/07/20 16:36:16;;;;;;;3.95;2.8;;;;;;;34.5;25.85742;95248.08;;;;
2020/07/20 16:37:18;;;;;;;3.95;2.8;;;;;;;34.5;25.85742;95248.08;;;;
2020/07/20 16:38:18;;;;;;;3.95;2.8;;;;;;;34.5;25.85742;95248.08;;;;
2020/07/20 16:39:19;;;;;;;3.95;2.8;;;;;;;34.5;25.85742;95248.08;;;;
2020/07/20 16:40:19;;;;;;;3.95;2.8;;;;;;;34.5;25.85742;95248.08;;;;
2020/07/20 16:41:20;;;;;;;3.95;2.8;;;;;;;34.5;25.85742;95248.08;;;;
2020/07/20 16:42:20;;;;;;;3.95;2.8;;;;;;;34.5;25.85742;95248.08;;;;
2020/07/20 16:43:21;;;;;;;3.95;2.8;;;;;;;34.5;25.85742;95248.08;;;;
2020/07/20 16:44:21;;;;;;;3.95;2.8;;;;;;;34.5;25.85742;95248.08;;;;
2020/07/20 16:45:22;;;;;;;3.95;2.8;;;;;;;34.5;25.85742;95248.08;;;;
2020/07/20 16:46:22;;;;;;;2.85;2.65;;;;;;;33.37;26.51367;95244.09;;;;
2020/07/20 16:47:23;;;;;;;2.85;2.65;;;;;;;33.37;26.51367;95244.09;;;;
2020/07/20 16:48:24;;;;;;;2.85;2.65;;;;;;;33.37;26.51367;95244.09;;;;
2020/07/20 16:49:25;;;;;;;2.85;2.65;;;;;;;33.37;26.51367;95244.09;;;;
2020/07/20 16:50:26;;;;;;;2.85;2.65;;;;;;;33.37;26.51367;95244.09;;;;
2020/07/20 16:51:26;;;;;;;2.85;2.65;;;;;;;33.37;26.51367;95244.09;;;;
2020/07/20 16:52:27;;;;;;;2.85;2.65;;;;;;;33.37;26.51367;95244.09;;;;
2020/07/20 16:53:27;;;;;;;2.85;2.65;;;;;;;33.37;26.51367;95244.09;;;;
2020/07/20 16:54:28;;;;;;;2.85;2.65;;;;;;;33.37;26.51367;95244.09;;;;
2020/07/20 16:55:28;;;;;;;2.85;2.65;;;;;;;33.37;26.51367;95244.09;;;;
2020/07/20 16:56:29;;;;;;;2.85;2.65;;;;;;;33.37;26.51367;95244.09;;;;
2020/07/20 16:57:29;;;;;;;2.85;2.65;;;;;;;33.37;26.51367;95244.09;;;;
2020/07/20 16:58:30;;;;;;;2.85;2.65;;;;;;;33.37;26.51367;95244.09;;;;
2020/07/20 16:59:31;;;;;;;2.85;2.65;;;;;;;33.37;26.51367;95244.09;;;;
2020/07/20 17:00:31;;;;;;;2.85;2.65;;;;;;;33.37;26.51367;95244.09;;;;
2020/07/20 17:01:32;;;;;;;2.85;2.65;;;;;;;33.37;26.51367;95244.09;;;;
2020/07/20 17:02:32;;;;;;;2.85;2.65;;;;;;;33.37;26.51367;95244.09;;;;
2020/07/20 17:03:33;;;;;;;2.85;2.65;;;;;;;33.37;26.51367;95244.09;;;;
2020/07/20 17:04:33;;;;;;;2.85;2.65;;;;;;;33.37;26.51367;95244.09;;;;
2020/07/20 17:05:34;;;;;;;2.85;2.65;;;;;;;33.37;26.51367;95244.09;;;;
2020/07/20 17:06:35;;;;;;;2.85;2.65;;;;;;;33.37;26.51367;95244.09;;;;
2020/07/20 17:07:35;;;;;;;2.85;2.65;;;;;;;33.37;26.51367;95244.09;;;;
2020/07/20 17:08:36;;;;;;;3.4;3.1;;;;;;;30.69;28.16309;95233.29;;;;
2020/07/20 17:09:37;;;;;;;3.4;3.1;;;;;;;30.69;28.16309;95233.29;;;;
2020/07/20 17:10:37;;;;;;;3.4;3.1;;;;;;;30.69;28.16309;95233.29;;;;
2020/07/20 17:11:39;;;;;;;3.4;3.1;;;;;;;30.69;28.16309;95233.29;;;;
2020/07/20 17:12:40;;;;;;;3.4;3.1;;;;;;;30.69;28.16309;95233.29;;;;
2020/07/20 17:13:40;;;;;;;3.4;3.1;;;;;;;30.69;28.16309;95233.29;;;;
2020/07/20 17:14:41;;;;;;;3.4;3.1;;;;;;;30.69;28.16309;95233.29;;;;
2020/07/20 17:15:41;;;;;;;3.4;3.1;;;;;;;30.69;28.16309;95233.29;;;;
2020/07/20 17:16:42;;;;;;;3.4;3.1;;;;;;;30.69;28.16309;95233.29;;;;
2020/07/20 17:17:42;;;;;;;3.4;3.1;;;;;;;30.69;28.16309;95233.29;;;;
2020/07/20 17:18:43;;;;;;;3.65;3.2;;;;;;;29.35;29.5293;95239.81;;;;
2020/07/20 17:19:43;;;;;;;3.65;3.2;;;;;;;29.35;29.5293;95239.81;;;;
2020/07/20 17:20:44;;;;;;;3.65;3.2;;;;;;;29.35;29.5293;95239.81;;;;
2020/07/20 17:21:44;;;;;;;3.65;3.2;;;;;;;29.35;29.5293;95239.81;;;;
2020/07/20 17:22:45;;;;;;;3.65;3.2;;;;;;;29.35;29.5293;95239.81;;;;
2020/07/20 17:23:45;;;;;;;3.65;3.2;;;;;;;29.35;29.5293;95239.81;;;;
2020/07/20 17:24:46;;;;;;;3.65;3.2;;;;;;;29.35;29.5293;95239.81;;;;
2020/07/20 17:25:47;;;;;;;3.65;3.2;;;;;;;29.35;29.5293;95239.81;;;;
2020/07/20 17:26:47;;;;;;;3.65;3.2;;;;;;;29.35;29.5293;95239.81;;;;
2020/07/20 17:27:48;;;;;;;3.65;3.2;;;;;;;29.35;29.5293;95239.81;;;;
2020/07/20 17:28:48;;;;;;;3.65;3.2;;;;;;;29.35;29.5293;95239.81;;;;
2020/07/20 17:29:49;;;;;;;3.4;3.15;;;;;;;28.32;31.18848;95238.69;;;;
2020/07/20 17:30:49;;;;;;;3.4;3.15;;;;;;;28.32;31.18848;95238.69;;;;
2020/07/20 17:31:50;;;;;;;3.4;3.15;;;;;;;28.32;31.18848;95238.69;;;;
2020/07/20 17:32:51;;;;;;;3.4;3.15;;;;;;;28.32;31.18848;95238.69;;;;
2020/07/20 17:33:51;;;;;;;3.4;3.15;;;;;;;28.32;31.18848;95238.69;;;;
2020/07/20 17:34:52;;;;;;;3.4;3.15;;;;;;;28.32;31.18848;95238.69;;;;
2020/07/20 17:35:53;;;;;;;3.4;3.15;;;;;;;28.32;31.18848;95238.69;;;;
2020/07/20 17:36:54;;;;;;;3.4;3.15;;;;;;;28.32;31.18848;95238.69;;;;
2020/07/20 17:37:54;;;;;;;3.4;3.15;;;;;;;28.32;31.18848;95238.69;;;;
2020/07/20 17:38:55;;;;;;;3.4;3.15;;;;;;;28.32;31.18848;95238.69;;;;
2020/07/20 17:39:55;;;;;;;3.4;3.1;;;;;;;27.42;32.28613;95233.45;;;;
2020/07/20 17:40:56;;;;;;;3.4;3.1;;;;;;;27.42;32.28613;95233.45;;;;
2020/07/20 17:41:56;;;;;;;3.4;3.1;;;;;;;27.42;32.28613;95233.45;;;;
2020/07/20 17:43:29;;;;;;;3.4;3.1;;;;;;;27.42;32.28613;95233.45;;;;
2020/07/20 17:44:34;;;;;;;3.4;3.1;;;;;;;27.42;32.28613;95233.45;;;;
2020/07/20 17:45:35;;;;;;;3.4;3.1;;;;;;;27.42;32.28613;95233.45;;;;
2020/07/20 17:46:35;;;;;;;3.4;3.1;;;;;;;27.42;32.28613;95233.45;;;;
2020/07/20 17:47:36;;;;;;;3.4;3.1;;;;;;;27.42;32.28613;95233.45;;;;
2020/07/20 17:48:36;;;;;;;3.4;3.1;;;;;;;27.42;32.28613;95233.45;;;;
2020/07/20 17:49:37;;;;;;;3.4;3.1;;;;;;;27.42;32.28613;95233.45;;;;
2020/07/20 17:50:37;;;;;;;3.15;2.95;;;;;;;26.74;33.03418;95230.91;;;;
2020/07/20 17:51:38;;;;;;;3.15;2.95;;;;;;;26.74;33.03418;95230.91;;;;
2020/07/20 17:52:38;;;;;;;3.15;2.95;;;;;;;26.74;33.03418;95230.91;;;;
2020/07/20 17:53:45;;;;;;;3.15;2.95;;;;;;;26.74;33.03418;95230.91;;;;
2020/07/20 17:54:46;;;;;;;3.15;2.95;;;;;;;26.74;33.03418;95230.91;;;;
2020/07/20 17:55:46;;;;;;;3.15;2.95;;;;;;;26.74;33.03418;95230.91;;;;
2020/07/20 17:56:47;;;;;;;3.15;2.95;;;;;;;26.74;33.03418;95230.91;;;;
2020/07/20 17:57:47;;;;;;;3.15;2.95;;;;;;;26.74;33.03418;95230.91;;;;
2020/07/20 17:58:48;;;;;;;3.15;2.95;;;;;;;26.74;33.03418;95230.91;;;;
2020/07/20 17:59:48;;;;;;;3.15;2.95;;;;;;;26.74;33.03418;95230.91;;;;
2020/07/20 18:00:49;;;;;;;3.8;3.5;;;;;;;26.04;34.4082;95233.91;;;;
2020/07/20 18:01:49;;;;;;;3.8;3.5;;;;;;;26.04;34.4082;95233.91;;;;
2020/07/20 18:02:50;;;;;;;3.8;3.5;;;;;;;26.04;34.4082;95233.91;;;;
2020/07/20 18:03:50;;;;;;;3.8;3.5;;;;;;;26.04;34.4082;95233.91;;;;
2020/07/20 18:04:51;;;;;;;3.8;3.5;;;;;;;26.04;34.4082;95233.91;;;;
2020/07/20 18:05:52;;;;;;;3.8;3.5;;;;;;;26.04;34.4082;95233.91;;;;
2020/07/20 18:06:52;;;;;;;3.8;3.5;;;;;;;26.04;34.4082;95233.91;;;;
2020/07/20 18:07:53;;;;;;;3.8;3.5;;;;;;;26.04;34.4082;95233.91;;;;
2020/07/20 18:08:53;;;;;;;3.8;3.5;;;;;;;26.04;34.4082;95233.91;;;;
2020/07/20 18:09:54;;;;;;;3.8;3.5;;;;;;;26.04;34.4082;95233.91;;;;
2020/07/20 18:10:54;;;;;;;3.8;3.5;;;;;;;26.04;34.4082;95233.91;;;;
2020/07/20 18:11:55;;;;;;;4.35;3.85;;;;;;;25.41;35.41309;95236.36;;;;
2020/07/20 18:12:55;;;;;;;4.35;3.85;;;;;;;25.41;35.41309;95236.36;;;;
2020/07/20 18:13:56;;;;;;;4.35;3.85;;;;;;;25.41;35.41309;95236.36;;;;
2020/07/20 18:14:57;;;;;;;4.35;3.85;;;;;;;25.41;35.41309;95236.36;;;;
2020/07/20 18:15:57;;;;;;;4.35;3.85;;;;;;;25.41;35.41309;95236.36;;;;
2020/07/20 18:16:58;;;;;;;4.35;3.85;;;;;;;25.41;35.41309;95236.36;;;;
2020/07/20 18:17:58;;;;;;;4.35;3.85;;;;;;;25.41;35.41309;95236.36;;;;
2020/07/20 18:18:59;;;;;;;4.35;3.85;;;;;;;25.41;35.41309;95236.36;;;;
2020/07/20 18:19:59;;;;;;;4.35;3.85;;;;;;;25.41;35.41309;95236.36;;;;
2020/07/20 18:21:00;;;;;;;4.35;3.85;;;;;;;25.41;35.41309;95236.36;;;;
2020/07/20 18:22:00;;;;;;;4.35;3.85;;;;;;;25.41;35.41309;95236.36;;;;
2020/07/20 18:23:01;;;;;;;4.35;3.85;;;;;;;25.41;35.41309;95236.36;;;;
2020/07/20 18:24:02;;;;;;;4.35;3.85;;;;;;;25.41;35.41309;95236.36;;;;
2020/07/20 18:25:02;;;;;;;4.35;3.85;;;;;;;25.41;35.41309;95236.36;;;;
2020/07/20 18:26:03;;;;;;;4.35;3.85;;;;;;;25.41;35.41309;95236.36;;;;
2020/07/20 18:27:04;;;;;;;4.35;3.85;;;;;;;25.41;35.41309;95236.36;;;;
2020/07/20 18:28:04;;;;;;;4.35;3.85;;;;;;;25.41;35.41309;95236.36;;;;
2020/07/20 18:29:05;;;;;;;4.35;3.85;;;;;;;25.41;35.41309;95236.36;;;;
2020/07/20 18:30:05;;;;;;;4.35;3.85;;;;;;;25.41;35.41309;95236.36;;;;
2020/07/20 18:31:06;;;;;;;4.35;3.85;;;;;;;25.41;35.41309;95236.36;;;;
2020/07/20 18:32:07;;;;;;;4.35;3.85;;;;;;;25.41;35.41309;95236.36;;;;
2020/07/20 18:33:07;;;;;;;4;3.6;;;;;;;24.02;38.39258;95244.7;;;;
2020/07/20 18:34:08;;;;;;;4;3.6;;;;;;;24.02;38.39258;95244.7;;;;
2020/07/20 18:35:09;;;;;;;4;3.6;;;;;;;24.02;38.39258;95244.7;;;;
2020/07/20 18:36:09;;;;;;;4;3.6;;;;;;;24.02;38.39258;95244.7;;;;
2020/07/20 18:37:10;;;;;;;4;3.6;;;;;;;24.02;38.39258;95244.7;;;;
2020/07/20 18:38:10;;;;;;;4;3.6;;;;;;;24.02;38.39258;95244.7;;;;
2020/07/20 18:39:11;;;;;;;4;3.6;;;;;;;24.02;38.39258;95244.7;;;;
2020/07/20 18:40:13;;;;;;;4;3.6;;;;;;;24.02;38.39258;95244.7;;;;
2020/07/20 18:41:14;;;;;;;4;3.6;;;;;;;24.02;38.39258;95244.7;;;;
2020/07/20 18:42:15;;;;;;;4;3.6;;;;;;;24.02;38.39258;95244.7;;;;
2020/07/20 18:43:15;;;;;;;4;3.6;;;;;;;24.02;38.39258;95244.7;;;;
2020/07/20 18:44:16;;;;;;;4;3.6;;;;;;;24.02;38.39258;95244.7;;;;
2020/07/20 18:45:16;;;;;;;4;3.6;;;;;;;24.02;38.39258;95244.7;;;;
2020/07/20 18:46:17;;;;;;;4;3.6;;;;;;;24.02;38.39258;95244.7;;;;
2020/07/20 18:47:17;;;;;;;4;3.6;;;;;;;24.02;38.39258;95244.7;;;;
2020/07/20 18:48:18;;;;;;;4;3.6;;;;;;;24.02;38.39258;95244.7;;;;
2020/07/20 18:49:18;;;;;;;4;3.6;;;;;;;24.02;38.39258;95244.7;;;;
2020/07/20 18:50:19;;;;;;;4;3.6;;;;;;;24.02;38.39258;95244.7;;;;
2020/07/20 18:51:20;;;;;;;4;3.6;;;;;;;24.02;38.39258;95244.7;;;;
2020/07/20 18:52:21;;;;;;;4;3.6;;;;;;;24.02;38.39258;95244.7;;;;
2020/07/20 18:53:21;;;;;;;4;3.6;;;;;;;24.02;38.39258;95244.7;;;;
2020/07/20 18:54:23;;;;;;;4.349999;3.95;;;;;;;22.48;41.66016;95255.22;;;;
2020/07/20 18:55:24;;;;;;;4.349999;3.95;;;;;;;22.48;41.66016;95255.22;;;;
2020/07/20 18:56:24;;;;;;;4.349999;3.95;;;;;;;22.48;41.66016;95255.22;;;;
2020/07/20 18:57:24;;;;;;;4.349999;3.95;;;;;;;22.48;41.66016;95255.22;;;;
2020/07/20 18:58:25;;;;;;;4.349999;3.95;;;;;;;22.48;41.66016;95255.22;;;;
2020/07/20 18:59:26;;;;;;;4.349999;3.95;;;;;;;22.48;41.66016;95255.22;;;;
2020/07/20 19:00:26;;;;;;;4.349999;3.95;;;;;;;22.48;41.66016;95255.22;;;;
2020/07/20 19:01:27;;;;;;;4.349999;3.95;;;;;;;22.48;41.66016;95255.22;;;;
2020/07/20 19:02:27;;;;;;;4.349999;3.95;;;;;;;22.48;41.66016;95255.22;;;;
2020/07/20 19:03:28;;;;;;;4.349999;3.95;;;;;;;22.48;41.66016;95255.22;;;;
2020/07/20 19:04:28;;;;;;;4.349999;3.95;;;;;;;22.48;41.66016;95255.22;;;;
2020/07/20 19:05:30;;;;;;;5.349999;4.799999;;;;;;;21.69;43.25977;95266.85;;;;
2020/07/20 19:06:30;;;;;;;5.349999;4.799999;;;;;;;21.69;43.25977;95266.85;;;;
2020/07/20 19:07:31;;;;;;;5.349999;4.799999;;;;;;;21.69;43.25977;95266.85;;;;
2020/07/20 19:08:31;;;;;;;5.349999;4.799999;;;;;;;21.69;43.25977;95266.85;;;;
2020/07/20 19:09:32;;;;;;;5.349999;4.799999;;;;;;;21.69;43.25977;95266.85;;;;
2020/07/20 19:10:32;;;;;;;5.349999;4.799999;;;;;;;21.69;43.25977;95266.85;;;;
2020/07/20 19:11:33;;;;;;;5.349999;4.799999;;;;;;;21.69;43.25977;95266.85;;;;
2020/07/20 19:12:33;;;;;;;5.349999;4.799999;;;;;;;21.69;43.25977;95266.85;;;;
2020/07/20 19:13:50;;;;;;;5.349999;4.799999;;;;;;;21.69;43.25977;95266.85;;;;
2020/07/20 19:14:50;;;;;;;5.349999;4.799999;;;;;;;21.69;43.25977;95266.85;;;;
2020/07/20 19:15:51;;;;;;;6.3;5.7;;;;;;;21.07;44.79199;95280.64;;;;
2020/07/20 19:16:51;;;;;;;6.3;5.7;;;;;;;21.07;44.79199;95280.64;;;;
2020/07/20 19:17:52;;;;;;;6.3;5.7;;;;;;;21.07;44.79199;95280.64;;;;
2020/07/20 19:18:53;;;;;;;6.3;5.7;;;;;;;21.07;44.79199;95280.64;;;;
2020/07/20 19:19:53;;;;;;;6.3;5.7;;;;;;;21.07;44.79199;95280.64;;;;
2020/07/20 19:20:54;;;;;;;6.3;5.7;;;;;;;21.07;44.79199;95280.64;;;;
2020/07/20 19:21:54;;;;;;;6.3;5.7;;;;;;;21.07;44.79199;95280.64;;;;
2020/07/20 19:22:56;;;;;;;6.3;5.7;;;;;;;21.07;44.79199;95280.64;;;;
2020/07/20 19:23:56;;;;;;;6.3;5.7;;;;;;;21.07;44.79199;95280.64;;;;
2020/07/20 19:24:57;;;;;;;6.3;5.7;;;;;;;21.07;44.79199;95280.64;;;;
2020/07/20 19:25:57;;;;;;;6.3;5.7;;;;;;;21.07;44.79199;95280.64;;;;
2020/07/20 19:26:58;;;;;;;6.3;5.7;;;;;;;21.07;44.79199;95280.64;;;;
2020/07/20 19:27:59;;;;;;;6.3;5.7;;;;;;;21.07;44.79199;95280.64;;;;
2020/07/20 19:28:59;;;;;;;6.3;5.7;;;;;;;21.07;44.79199;95280.64;;;;
2020/07/20 19:30:00;;;;;;;6.3;5.7;;;;;;;21.07;44.79199;95280.64;;;;
2020/07/20 19:31:01;;;;;;;6.3;5.7;;;;;;;21.07;44.79199;95280.64;;;;
2020/07/20 19:32:02;;;;;;;6.3;5.7;;;;;;;21.07;44.79199;95280.64;;;;
2020/07/20 19:33:03;;;;;;;6.3;5.7;;;;;;;21.07;44.79199;95280.64;;;;
2020/07/20 19:34:04;;;;;;;6.3;5.7;;;;;;;21.07;44.79199;95280.64;;;;
2020/07/20 19:35:04;;;;;;;6.3;5.7;;;;;;;21.07;44.79199;95280.64;;;;
2020/07/20 19:36:05;;;;;;;6.3;5.7;;;;;;;21.07;44.79199;95280.64;;;;
2020/07/20 19:37:05;;;;;;;7.750001;6;;;;;;;20.06;47.50293;95313.7;;;;
2020/07/20 19:38:06;;;;;;;7.750001;6;;;;;;;20.06;47.50293;95313.7;;;;
2020/07/20 19:39:06;;;;;;;7.750001;6;;;;;;;20.06;47.50293;95313.7;;;;
2020/07/20 19:40:07;;;;;;;7.750001;6;;;;;;;20.06;47.50293;95313.7;;;;
2020/07/20 19:41:08;;;;;;;7.750001;6;;;;;;;20.06;47.50293;95313.7;;;;
2020/07/20 19:42:08;;;;;;;7.750001;6;;;;;;;20.06;47.50293;95313.7;;;;
2020/07/20 19:43:10;;;;;;;7.750001;6;;;;;;;20.06;47.50293;95313.7;;;;
2020/07/20 19:44:11;;;;;;;7.750001;6;;;;;;;20.06;47.50293;95313.7;;;;
2020/07/20 19:45:12;;;;;;;7.750001;6;;;;;;;20.06;47.50293;95313.7;;;;
2020/07/20 19:46:12;;;;;;;7.750001;6;;;;;;;20.06;47.50293;95313.7;;;;
2020/07/20 19:47:13;;;;;;;7.750001;6;;;;;;;20.06;47.50293;95313.7;;;;
2020/07/20 19:48:14;;;;;;;9.35;8.4;;;;;;;19.59;49.13574;95324.68;;;;
2020/07/20 19:49:14;;;;;;;9.35;8.4;;;;;;;19.59;49.13574;95324.68;;;;
2020/07/20 19:50:16;;;;;;;9.35;8.4;;;;;;;19.59;49.13574;95324.68;;;;
2020/07/20 19:51:17;;;;;;;9.35;8.4;;;;;;;19.59;49.13574;95324.68;;;;
2020/07/20 19:52:18;;;;;;;9.35;8.4;;;;;;;19.59;49.13574;95324.68;;;;
2020/07/20 19:53:18;;;;;;;9.35;8.4;;;;;;;19.59;49.13574;95324.68;;;;
2020/07/20 19:54:19;;;;;;;9.35;8.4;;;;;;;19.59;49.13574;95324.68;;;;
2020/07/20 19:55:19;;;;;;;9.35;8.4;;;;;;;19.59;49.13574;95324.68;;;;
2020/07/20 19:56:20;;;;;;;9.35;8.4;;;;;;;19.59;49.13574;95324.68;;;;
2020/07/20 19:57:20;;;;;;;9.35;8.4;;;;;;;19.59;49.13574;95324.68;;;;
2020/07/20 19:58:21;;;;;;;9.4;8.450001;;;;;;;19.27;50.59668;95336.22;;;;
2020/07/20 19:59:21;;;;;;;9.4;8.450001;;;;;;;19.27;50.59668;95336.22;;;;
2020/07/20 20:00:22;;;;;;;9.4;8.450001;;;;;;;19.27;50.59668;95336.22;;;;
2020/07/20 20:01:22;;;;;;;9.4;8.450001;;;;;;;19.27;50.59668;95336.22;;;;
2020/07/20 20:02:23;;;;;;;9.4;8.450001;;;;;;;19.27;50.59668;95336.22;;;;
2020/07/20 20:03:23;;;;;;;9.4;8.450001;;;;;;;19.27;50.59668;95336.22;;;;
2020/07/20 20:04:24;;;;;;;9.4;8.450001;;;;;;;19.27;50.59668;95336.22;;;;
2020/07/20 20:05:25;;;;;;;9.4;8.450001;;;;;;;19.27;50.59668;95336.22;;;;